sensor_id;sensor_type;location;lat;lon;timestamp;temperature;humidity
21992;DHT22;11160;51.576;0.194;2022-08-03T00:01:37;25.20;78.80
21992;DHT22;11160;51.576;0.194;2022-08-03T00:04:05;25.20;78.80
21992;DHT22;11160;51.576;0.194;2022-08-03T00:06:34;25.20;78.80
21992;DHT22;11160;51.576;0.194;2022-08-03T00:09:05;25.20;78.80
21992;DHT22;11160;51.576;0.194;2022-08-03T00:11:33;25.10;79.10
21992;DHT22;11160;51.576;0.194;2022-08-03T00:14:00;25.20;78.90
21992;DHT22;11160;51.576;0.194;2022-08-03T00:16:27;25.20;79.00
21992;DHT22;11160;51.576;0.194;2022-08-03T00:18:55;25.10;78.90
21992;DHT22;11160;51.576;0.194;2022-08-03T00:21:22;25.10;78.90
21992;DHT22;11160;51.576;0.194;2022-08-03T00:23:49;25.10;78.90
21992;DHT22;11160;51.576;0.194;2022-08-03T00:26:20;25.10;79.00
21992;DHT22;11160;51.576;0.194;2022-08-03T00:28:47;25.10;79.10
21992;DHT22;11160;51.576;0.194;2022-08-03T00:31:15;25.00;79.10
21992;DHT22;11160;51.576;0.194;2022-08-03T00:33:49;25.00;79.00
21992;DHT22;11160;51.576;0.194;2022-08-03T00:36:26;25.00;79.30
21992;DHT22;11160;51.576;0.194;2022-08-03T00:38:54;25.00;79.50
21992;DHT22;11160;51.576;0.194;2022-08-03T00:41:22;25.00;79.30
21992;DHT22;11160;51.576;0.194;2022-08-03T00:43:49;25.00;79.50
21992;DHT22;11160;51.576;0.194;2022-08-03T00:46:16;24.90;79.40
21992;DHT22;11160;51.576;0.194;2022-08-03T00:48:48;24.90;79.40
21992;DHT22;11160;51.576;0.194;2022-08-03T00:51:17;24.90;79.70
21992;DHT22;11160;51.576;0.194;2022-08-03T00:53:44;24.90;79.70
21992;DHT22;11160;51.576;0.194;2022-08-03T00:56:15;24.90;79.70
21992;DHT22;11160;51.576;0.194;2022-08-03T00:58:44;24.90;79.90
21992;DHT22;11160;51.576;0.194;2022-08-03T01:01:12;24.80;79.80
21992;DHT22;11160;51.576;0.194;2022-08-03T01:03:40;24.80;80.10
21992;DHT22;11160;51.576;0.194;2022-08-03T01:06:24;24.80;80.10
21992;DHT22;11160;51.576;0.194;2022-08-03T01:09:01;24.80;80.30
21992;DHT22;11160;51.576;0.194;2022-08-03T01:14:37;24.80;80.00
21992;DHT22;11160;51.576;0.194;2022-08-03T01:17:23;24.80;80.20
21992;DHT22;11160;51.576;0.194;2022-08-03T01:20:09;24.70;80.20
21992;DHT22;11160;51.576;0.194;2022-08-03T01:22:51;24.70;80.50
21992;DHT22;11160;51.576;0.194;2022-08-03T01:28:24;24.70;80.40
21992;DHT22;11160;51.576;0.194;2022-08-03T01:30:57;24.70;80.50
21992;DHT22;11160;51.576;0.194;2022-08-03T01:33:35;24.70;80.50
21992;DHT22;11160;51.576;0.194;2022-08-03T01:36:06;24.70;80.60
21992;DHT22;11160;51.576;0.194;2022-08-03T01:38:37;24.60;80.60
21992;DHT22;11160;51.576;0.194;2022-08-03T01:41:11;24.60;80.60
21992;DHT22;11160;51.576;0.194;2022-08-03T01:43:41;24.60;80.70
21992;DHT22;11160;51.576;0.194;2022-08-03T01:46:32;24.60;80.80
21992;DHT22;11160;51.576;0.194;2022-08-03T01:49:00;24.60;80.80
21992;DHT22;11160;51.576;0.194;2022-08-03T01:51:40;24.60;80.80
21992;DHT22;11160;51.576;0.194;2022-08-03T01:54:28;24.60;80.90
21992;DHT22;11160;51.576;0.194;2022-08-03T01:56:57;24.50;80.90
21992;DHT22;11160;51.576;0.194;2022-08-03T01:59:25;24.50;81.00
21992;DHT22;11160;51.576;0.194;2022-08-03T02:01:55;24.50;80.90
21992;DHT22;11160;51.576;0.194;2022-08-03T02:04:45;24.50;81.00
21992;DHT22;11160;51.576;0.194;2022-08-03T02:07:13;24.50;81.10
21992;DHT22;11160;51.576;0.194;2022-08-03T02:09:43;24.50;81.10
21992;DHT22;11160;51.576;0.194;2022-08-03T02:12:13;24.50;81.30
21992;DHT22;11160;51.576;0.194;2022-08-03T02:14:43;24.40;81.20
21992;DHT22;11160;51.576;0.194;2022-08-03T02:17:12;24.40;81.30
21992;DHT22;11160;51.576;0.194;2022-08-03T02:19:41;24.40;81.30
21992;DHT22;11160;51.576;0.194;2022-08-03T02:22:10;24.40;81.50
21992;DHT22;11160;51.576;0.194;2022-08-03T02:24:38;24.40;81.50
21992;DHT22;11160;51.576;0.194;2022-08-03T02:27:12;24.40;81.40
21992;DHT22;11160;51.576;0.194;2022-08-03T02:29:42;24.40;81.50
21992;DHT22;11160;51.576;0.194;2022-08-03T02:32:13;24.40;81.60
21992;DHT22;11160;51.576;0.194;2022-08-03T02:34:46;24.40;81.60
21992;DHT22;11160;51.576;0.194;2022-08-03T02:37:18;24.30;81.80
21992;DHT22;11160;51.576;0.194;2022-08-03T02:39:46;24.30;81.70
21992;DHT22;11160;51.576;0.194;2022-08-03T02:42:15;24.30;81.70
21992;DHT22;11160;51.576;0.194;2022-08-03T02:44:47;24.30;81.90
21992;DHT22;11160;51.576;0.194;2022-08-03T02:47:16;24.30;81.90
21992;DHT22;11160;51.576;0.194;2022-08-03T02:49:48;24.30;81.70
21992;DHT22;11160;51.576;0.194;2022-08-03T02:52:25;24.30;81.90
21992;DHT22;11160;51.576;0.194;2022-08-03T02:54:56;24.30;82.20
21992;DHT22;11160;51.576;0.194;2022-08-03T02:57:27;24.30;82.00
21992;DHT22;11160;51.576;0.194;2022-08-03T02:59:56;24.30;81.90
21992;DHT22;11160;51.576;0.194;2022-08-03T03:02:24;24.20;81.90
21992;DHT22;11160;51.576;0.194;2022-08-03T03:04:52;24.20;82.00
21992;DHT22;11160;51.576;0.194;2022-08-03T03:07:41;24.30;82.40
21992;DHT22;11160;51.576;0.194;2022-08-03T03:10:21;24.20;82.30
21992;DHT22;11160;51.576;0.194;2022-08-03T03:12:55;24.20;82.40
21992;DHT22;11160;51.576;0.194;2022-08-03T03:15:25;24.20;82.50
21992;DHT22;11160;51.576;0.194;2022-08-03T03:17:52;24.20;82.50
21992;DHT22;11160;51.576;0.194;2022-08-03T03:20:21;24.20;82.70
21992;DHT22;11160;51.576;0.194;2022-08-03T03:22:58;24.20;82.70
21992;DHT22;11160;51.576;0.194;2022-08-03T03:25:31;24.20;82.70
21992;DHT22;11160;51.576;0.194;2022-08-03T03:28:02;24.20;82.70
21992;DHT22;11160;51.576;0.194;2022-08-03T03:30:32;24.10;82.70
21992;DHT22;11160;51.576;0.194;2022-08-03T03:32:59;24.20;82.80
21992;DHT22;11160;51.576;0.194;2022-08-03T03:35:29;24.10;82.70
21992;DHT22;11160;51.576;0.194;2022-08-03T03:38:05;24.10;82.80
21992;DHT22;11160;51.576;0.194;2022-08-03T03:40:34;24.10;82.80
21992;DHT22;11160;51.576;0.194;2022-08-03T03:43:02;24.10;83.00
21992;DHT22;11160;51.576;0.194;2022-08-03T03:45:30;24.10;82.90
21992;DHT22;11160;51.576;0.194;2022-08-03T03:48:07;24.10;82.90
21992;DHT22;11160;51.576;0.194;2022-08-03T03:50:36;24.10;83.10
21992;DHT22;11160;51.576;0.194;2022-08-03T03:53:03;24.10;83.10
21992;DHT22;11160;51.576;0.194;2022-08-03T03:55:35;24.10;83.20
21992;DHT22;11160;51.576;0.194;2022-08-03T03:58:23;24.10;83.20
21992;DHT22;11160;51.576;0.194;2022-08-03T04:00:50;24.10;83.30
21992;DHT22;11160;51.576;0.194;2022-08-03T04:03:19;24.00;83.30
21992;DHT22;11160;51.576;0.194;2022-08-03T04:05:47;24.00;83.30
21992;DHT22;11160;51.576;0.194;2022-08-03T04:08:33;24.10;83.40
21992;DHT22;11160;51.576;0.194;2022-08-03T04:11:21;24.00;83.40
21992;DHT22;11160;51.576;0.194;2022-08-03T04:14:13;24.00;83.50
21992;DHT22;11160;51.576;0.194;2022-08-03T04:16:47;24.00;83.60
21992;DHT22;11160;51.576;0.194;2022-08-03T04:19:37;24.00;83.60
21992;DHT22;11160;51.576;0.194;2022-08-03T04:22:09;24.00;83.70
21992;DHT22;11160;51.576;0.194;2022-08-03T04:24:43;24.00;83.60
21992;DHT22;11160;51.576;0.194;2022-08-03T04:27:20;24.00;83.70
21992;DHT22;11160;51.576;0.194;2022-08-03T04:29:52;24.00;83.80
21992;DHT22;11160;51.576;0.194;2022-08-03T04:32:21;24.00;83.90
21992;DHT22;11160;51.576;0.194;2022-08-03T04:34:51;24.00;83.90
21992;DHT22;11160;51.576;0.194;2022-08-03T04:37:32;23.90;83.80
21992;DHT22;11160;51.576;0.194;2022-08-03T04:40:02;24.00;84.00
21992;DHT22;11160;51.576;0.194;2022-08-03T04:42:32;23.90;83.90
21992;DHT22;11160;51.576;0.194;2022-08-03T04:45:02;23.90;84.00
21992;DHT22;11160;51.576;0.194;2022-08-03T04:47:32;23.90;84.00
21992;DHT22;11160;51.576;0.194;2022-08-03T04:50:01;23.90;84.10
21992;DHT22;11160;51.576;0.194;2022-08-03T04:52:29;23.90;84.10
21992;DHT22;11160;51.576;0.194;2022-08-03T04:54:56;23.90;84.10
21992;DHT22;11160;51.576;0.194;2022-08-03T04:57:23;23.90;84.30
21992;DHT22;11160;51.576;0.194;2022-08-03T04:59:51;23.90;84.30
21992;DHT22;11160;51.576;0.194;2022-08-03T05:02:28;23.90;84.30
21992;DHT22;11160;51.576;0.194;2022-08-03T05:04:57;23.90;84.20
21992;DHT22;11160;51.576;0.194;2022-08-03T05:07:24;23.90;84.40
21992;DHT22;11160;51.576;0.194;2022-08-03T05:09:51;23.90;84.40
21992;DHT22;11160;51.576;0.194;2022-08-03T05:12:28;23.90;84.40
21992;DHT22;11160;51.576;0.194;2022-08-03T05:14:59;23.90;84.40
21992;DHT22;11160;51.576;0.194;2022-08-03T05:17:27;23.90;84.50
21992;DHT22;11160;51.576;0.194;2022-08-03T05:19:54;23.90;84.50
21992;DHT22;11160;51.576;0.194;2022-08-03T05:22:22;23.90;84.60
21992;DHT22;11160;51.576;0.194;2022-08-03T05:24:49;23.90;84.80
21992;DHT22;11160;51.576;0.194;2022-08-03T05:27:16;23.90;84.80
21992;DHT22;11160;51.576;0.194;2022-08-03T05:29:47;23.90;84.80
21992;DHT22;11160;51.576;0.194;2022-08-03T05:32:15;23.90;84.90
21992;DHT22;11160;51.576;0.194;2022-08-03T05:34:44;23.80;85.60
21992;DHT22;11160;51.576;0.194;2022-08-03T05:37:11;23.80;84.90
21992;DHT22;11160;51.576;0.194;2022-08-03T05:39:38;23.90;85.00
21992;DHT22;11160;51.576;0.194;2022-08-03T05:42:05;23.90;85.10
21992;DHT22;11160;51.576;0.194;2022-08-03T05:44:33;23.90;85.10
21992;DHT22;11160;51.576;0.194;2022-08-03T05:47:00;23.90;85.20
21992;DHT22;11160;51.576;0.194;2022-08-03T05:49:27;23.80;85.20
21992;DHT22;11160;51.576;0.194;2022-08-03T05:51:54;23.80;85.20
21992;DHT22;11160;51.576;0.194;2022-08-03T05:54:36;23.80;86.00
21992;DHT22;11160;51.576;0.194;2022-08-03T05:57:23;23.80;85.20
21992;DHT22;11160;51.576;0.194;2022-08-03T05:59:50;23.90;85.30
21992;DHT22;11160;51.576;0.194;2022-08-03T06:02:27;23.90;85.30
21992;DHT22;11160;51.576;0.194;2022-08-03T06:04:54;23.90;85.40
21992;DHT22;11160;51.576;0.194;2022-08-03T06:07:21;23.90;85.20
21992;DHT22;11160;51.576;0.194;2022-08-03T06:09:49;23.90;85.20
21992;DHT22;11160;51.576;0.194;2022-08-03T06:12:36;23.90;85.20
21992;DHT22;11160;51.576;0.194;2022-08-03T06:15:03;23.90;85.20
21992;DHT22;11160;51.576;0.194;2022-08-03T06:17:33;23.90;85.20
21992;DHT22;11160;51.576;0.194;2022-08-03T06:20:04;23.90;85.10
21992;DHT22;11160;51.576;0.194;2022-08-03T06:22:31;23.90;84.90
21992;DHT22;11160;51.576;0.194;2022-08-03T06:24:59;23.90;84.90
21992;DHT22;11160;51.576;0.194;2022-08-03T06:27:33;23.90;84.90
21992;DHT22;11160;51.576;0.194;2022-08-03T06:30:04;23.90;84.80
21992;DHT22;11160;51.576;0.194;2022-08-03T06:32:31;23.90;84.80
21992;DHT22;11160;51.576;0.194;2022-08-03T06:34:59;23.90;84.90
21992;DHT22;11160;51.576;0.194;2022-08-03T06:37:26;23.90;85.00
21992;DHT22;11160;51.576;0.194;2022-08-03T06:39:54;23.90;85.00
21992;DHT22;11160;51.576;0.194;2022-08-03T06:42:21;24.00;85.10
21992;DHT22;11160;51.576;0.194;2022-08-03T06:44:51;24.00;85.20
21992;DHT22;11160;51.576;0.194;2022-08-03T06:47:18;24.00;85.20
21992;DHT22;11160;51.576;0.194;2022-08-03T06:49:46;24.00;85.20
21992;DHT22;11160;51.576;0.194;2022-08-03T06:52:34;24.00;85.10
21992;DHT22;11160;51.576;0.194;2022-08-03T06:55:05;24.00;84.90
21992;DHT22;11160;51.576;0.194;2022-08-03T06:57:32;24.10;85.10
21992;DHT22;11160;51.576;0.194;2022-08-03T06:59:59;24.10;85.30
21992;DHT22;11160;51.576;0.194;2022-08-03T07:02:34;24.00;85.70
21992;DHT22;11160;51.576;0.194;2022-08-03T07:05:01;23.90;86.20
21992;DHT22;11160;51.576;0.194;2022-08-03T07:07:28;23.90;86.50
21992;DHT22;11160;51.576;0.194;2022-08-03T07:09:55;23.80;87.00
21992;DHT22;11160;51.576;0.194;2022-08-03T07:12:26;23.80;87.40
21992;DHT22;11160;51.576;0.194;2022-08-03T07:14:54;23.70;87.40
21992;DHT22;11160;51.576;0.194;2022-08-03T07:17:32;23.70;87.60
21992;DHT22;11160;51.576;0.194;2022-08-03T07:20:01;23.70;87.70
21992;DHT22;11160;51.576;0.194;2022-08-03T07:22:29;23.70;87.90
21992;DHT22;11160;51.576;0.194;2022-08-03T07:24:56;23.60;88.00
21992;DHT22;11160;51.576;0.194;2022-08-03T07:27:24;23.60;88.50
21992;DHT22;11160;51.576;0.194;2022-08-03T07:29:57;23.60;88.50
21992;DHT22;11160;51.576;0.194;2022-08-03T07:32:24;23.60;88.70
21992;DHT22;11160;51.576;0.194;2022-08-03T07:34:51;23.60;88.70
21992;DHT22;11160;51.576;0.194;2022-08-03T07:37:26;23.60;89.00
21992;DHT22;11160;51.576;0.194;2022-08-03T07:39:54;23.60;89.20
21992;DHT22;11160;51.576;0.194;2022-08-03T07:42:21;23.60;89.20
21992;DHT22;11160;51.576;0.194;2022-08-03T07:44:49;23.70;89.40
21992;DHT22;11160;51.576;0.194;2022-08-03T07:47:22;23.70;89.60
21992;DHT22;11160;51.576;0.194;2022-08-03T07:49:51;23.70;89.70
21992;DHT22;11160;51.576;0.194;2022-08-03T07:52:18;23.60;89.60
21992;DHT22;11160;51.576;0.194;2022-08-03T07:55:11;23.60;89.70
21992;DHT22;11160;51.576;0.194;2022-08-03T07:57:38;23.60;89.80
21992;DHT22;11160;51.576;0.194;2022-08-03T08:00:14;23.50;90.10
21992;DHT22;11160;51.576;0.194;2022-08-03T08:02:43;23.60;90.70
21992;DHT22;11160;51.576;0.194;2022-08-03T08:05:11;23.60;90.30
21992;DHT22;11160;51.576;0.194;2022-08-03T08:07:38;23.60;90.20
21992;DHT22;11160;51.576;0.194;2022-08-03T08:10:08;23.60;90.10
21992;DHT22;11160;51.576;0.194;2022-08-03T08:12:37;23.70;90.10
21992;DHT22;11160;51.576;0.194;2022-08-03T08:15:05;23.70;90.10
21992;DHT22;11160;51.576;0.194;2022-08-03T08:17:46;23.70;90.10
21992;DHT22;11160;51.576;0.194;2022-08-03T08:20:19;23.70;90.20
21992;DHT22;11160;51.576;0.194;2022-08-03T08:22:55;23.70;90.50
21992;DHT22;11160;51.576;0.194;2022-08-03T08:25:27;23.70;90.20
21992;DHT22;11160;51.576;0.194;2022-08-03T08:27:57;23.70;90.20
21992;DHT22;11160;51.576;0.194;2022-08-03T08:30:48;23.80;90.30
21992;DHT22;11160;51.576;0.194;2022-08-03T08:33:15;23.80;90.20
21992;DHT22;11160;51.576;0.194;2022-08-03T08:35:51;23.80;90.30
21992;DHT22;11160;51.576;0.194;2022-08-03T08:38:19;23.80;90.20
21992;DHT22;11160;51.576;0.194;2022-08-03T08:40:47;23.80;90.10
21992;DHT22;11160;51.576;0.194;2022-08-03T08:43:15;23.80;90.20
21992;DHT22;11160;51.576;0.194;2022-08-03T08:45:49;23.90;90.20
21992;DHT22;11160;51.576;0.194;2022-08-03T08:48:22;23.90;90.30
21992;DHT22;11160;51.576;0.194;2022-08-03T08:50:54;23.90;90.20
21992;DHT22;11160;51.576;0.194;2022-08-03T08:53:27;24.00;90.40
21992;DHT22;11160;51.576;0.194;2022-08-03T08:55:58;23.90;90.40
21992;DHT22;11160;51.576;0.194;2022-08-03T08:58:37;24.00;90.30
21992;DHT22;11160;51.576;0.194;2022-08-03T09:01:07;24.00;90.40
21992;DHT22;11160;51.576;0.194;2022-08-03T09:03:35;24.10;90.30
21992;DHT22;11160;51.576;0.194;2022-08-03T09:06:03;24.10;90.20
21992;DHT22;11160;51.576;0.194;2022-08-03T09:08:31;24.10;90.10
21992;DHT22;11160;51.576;0.194;2022-08-03T09:10:59;24.10;90.10
21992;DHT22;11160;51.576;0.194;2022-08-03T09:13:26;24.10;90.10
21992;DHT22;11160;51.576;0.194;2022-08-03T09:16:17;24.10;90.10
21992;DHT22;11160;51.576;0.194;2022-08-03T09:18:49;24.20;90.10
21992;DHT22;11160;51.576;0.194;2022-08-03T09:21:20;24.20;90.20
21992;DHT22;11160;51.576;0.194;2022-08-03T09:23:59;24.20;90.20
21992;DHT22;11160;51.576;0.194;2022-08-03T09:26:33;24.20;90.10
21992;DHT22;11160;51.576;0.194;2022-08-03T09:29:06;24.30;90.00
21992;DHT22;11160;51.576;0.194;2022-08-03T09:31:43;24.40;90.10
21992;DHT22;11160;51.576;0.194;2022-08-03T09:34:16;24.40;90.00
21992;DHT22;11160;51.576;0.194;2022-08-03T09:36:48;24.40;89.80
21992;DHT22;11160;51.576;0.194;2022-08-03T09:39:18;24.50;89.60
21992;DHT22;11160;51.576;0.194;2022-08-03T09:42:16;24.50;89.60
21992;DHT22;11160;51.576;0.194;2022-08-03T09:44:50;24.60;89.50
21992;DHT22;11160;51.576;0.194;2022-08-03T09:50:03;24.60;89.40
21992;DHT22;11160;51.576;0.194;2022-08-03T09:52:35;24.70;89.30
21992;DHT22;11160;51.576;0.194;2022-08-03T09:55:16;24.70;89.20
21992;DHT22;11160;51.576;0.194;2022-08-03T09:58:06;24.80;89.10
21992;DHT22;11160;51.576;0.194;2022-08-03T10:03:18;24.80;88.70
21992;DHT22;11160;51.576;0.194;2022-08-03T10:05:45;24.90;88.70
21992;DHT22;11160;51.576;0.194;2022-08-03T10:08:18;25.00;88.60
21992;DHT22;11160;51.576;0.194;2022-08-03T10:10:47;25.10;88.80
21992;DHT22;11160;51.576;0.194;2022-08-03T10:13:17;25.10;88.90
21992;DHT22;11160;51.576;0.194;2022-08-03T10:15:45;25.20;88.90
21992;DHT22;11160;51.576;0.194;2022-08-03T10:18:32;25.30;88.60
21992;DHT22;11160;51.576;0.194;2022-08-03T10:21:03;25.40;88.30
21992;DHT22;11160;51.576;0.194;2022-08-03T10:23:35;25.40;87.90
21992;DHT22;11160;51.576;0.194;2022-08-03T10:26:06;25.40;87.50
21992;DHT22;11160;51.576;0.194;2022-08-03T10:28:36;25.50;87.20
21992;DHT22;11160;51.576;0.194;2022-08-03T10:31:12;25.50;87.00
21992;DHT22;11160;51.576;0.194;2022-08-03T10:33:45;25.50;87.00
21992;DHT22;11160;51.576;0.194;2022-08-03T10:36:22;25.50;87.90
21992;DHT22;11160;51.576;0.194;2022-08-03T10:38:51;25.60;88.50
21992;DHT22;11160;51.576;0.194;2022-08-03T10:41:21;25.60;88.10
21992;DHT22;11160;51.576;0.194;2022-08-03T10:46:27;25.80;89.30
21992;DHT22;11160;51.576;0.194;2022-08-03T10:48:55;25.80;89.20
21992;DHT22;11160;51.576;0.194;2022-08-03T10:51:23;25.90;88.00
21992;DHT22;11160;51.576;0.194;2022-08-03T10:53:51;26.00;88.10
21992;DHT22;11160;51.576;0.194;2022-08-03T11:02:15;26.10;87.50
21992;DHT22;11160;51.576;0.194;2022-08-03T11:04:42;26.10;86.10
21992;DHT22;11160;51.576;0.194;2022-08-03T11:09:51;26.20;85.10
21992;DHT22;11160;51.576;0.194;2022-08-03T11:12:27;26.20;84.90
21992;DHT22;11160;51.576;0.194;2022-08-03T11:15:05;26.20;84.10
21992;DHT22;11160;51.576;0.194;2022-08-03T11:17:33;26.20;83.80
21992;DHT22;11160;51.576;0.194;2022-08-03T11:20:43;26.20;83.40
21992;DHT22;11160;51.576;0.194;2022-08-03T11:23:11;26.20;83.50
21992;DHT22;11160;51.576;0.194;2022-08-03T11:26:08;26.20;83.10
21992;DHT22;11160;51.576;0.194;2022-08-03T11:28:36;26.20;83.50
21992;DHT22;11160;51.576;0.194;2022-08-03T11:34:14;26.40;84.60
21992;DHT22;11160;51.576;0.194;2022-08-03T11:39:50;26.50;82.50
21992;DHT22;11160;51.576;0.194;2022-08-03T11:44:56;26.70;82.50
21992;DHT22;11160;51.576;0.194;2022-08-03T11:47:25;26.90;81.70
21992;DHT22;11160;51.576;0.194;2022-08-03T11:49:55;27.00;81.00
21992;DHT22;11160;51.576;0.194;2022-08-03T11:52:25;27.20;80.60
21992;DHT22;11160;51.576;0.194;2022-08-03T11:54:54;27.30;80.00
21992;DHT22;11160;51.576;0.194;2022-08-03T11:57:29;27.30;79.60
21992;DHT22;11160;51.576;0.194;2022-08-03T12:00:30;27.30;78.70
21992;DHT22;11160;51.576;0.194;2022-08-03T12:03:11;27.40;78.60
21992;DHT22;11160;51.576;0.194;2022-08-03T12:10:57;27.50;77.60
21992;DHT22;11160;51.576;0.194;2022-08-03T12:13:25;27.50;78.00
21992;DHT22;11160;51.576;0.194;2022-08-03T12:16:17;27.50;77.30
21992;DHT22;11160;51.576;0.194;2022-08-03T12:19:03;27.60;78.00
21992;DHT22;11160;51.576;0.194;2022-08-03T12:21:31;27.70;76.90
21992;DHT22;11160;51.576;0.194;2022-08-03T12:24:03;27.70;77.00
21992;DHT22;11160;51.576;0.194;2022-08-03T12:26:43;27.70;76.40
21992;DHT22;11160;51.576;0.194;2022-08-03T12:29:24;27.70;76.60
21992;DHT22;11160;51.576;0.194;2022-08-03T12:31:52;27.80;76.80
21992;DHT22;11160;51.576;0.194;2022-08-03T12:34:19;27.80;76.60
21992;DHT22;11160;51.576;0.194;2022-08-03T12:36:54;27.90;76.20
21992;DHT22;11160;51.576;0.194;2022-08-03T12:39:24;27.90;75.10
21992;DHT22;11160;51.576;0.194;2022-08-03T12:41:53;28.30;75.30
21992;DHT22;11160;51.576;0.194;2022-08-03T12:44:31;28.60;74.90
21992;DHT22;11160;51.576;0.194;2022-08-03T12:46:59;28.70;72.30
21992;DHT22;11160;51.576;0.194;2022-08-03T12:49:27;28.70;72.90
21992;DHT22;11160;51.576;0.194;2022-08-03T12:51:57;29.00;72.90
21992;DHT22;11160;51.576;0.194;2022-08-03T12:54:32;29.50;72.10
21992;DHT22;11160;51.576;0.194;2022-08-03T12:57:11;30.00;70.50
21992;DHT22;11160;51.576;0.194;2022-08-03T12:59:45;30.30;67.00
21992;DHT22;11160;51.576;0.194;2022-08-03T13:02:21;30.30;67.30
21992;DHT22;11160;51.576;0.194;2022-08-03T13:04:50;30.30;66.90
21992;DHT22;11160;51.576;0.194;2022-08-03T13:07:18;30.50;67.10
21992;DHT22;11160;51.576;0.194;2022-08-03T13:09:48;30.50;66.00
21992;DHT22;11160;51.576;0.194;2022-08-03T13:12:23;30.50;65.60
21992;DHT22;11160;51.576;0.194;2022-08-03T13:15:00;30.40;64.80
21992;DHT22;11160;51.576;0.194;2022-08-03T13:17:27;30.30;64.40
21992;DHT22;11160;51.576;0.194;2022-08-03T13:19:55;30.20;65.50
21992;DHT22;11160;51.576;0.194;2022-08-03T13:22:24;30.20;65.70
21992;DHT22;11160;51.576;0.194;2022-08-03T13:24:53;30.10;65.30
21992;DHT22;11160;51.576;0.194;2022-08-03T13:27:24;30.10;65.60
21992;DHT22;11160;51.576;0.194;2022-08-03T13:30:12;30.30;65.70
21992;DHT22;11160;51.576;0.194;2022-08-03T13:32:49;30.30;65.00
21992;DHT22;11160;51.576;0.194;2022-08-03T13:35:16;30.30;64.60
21992;DHT22;11160;51.576;0.194;2022-08-03T13:37:43;30.30;64.60
21992;DHT22;11160;51.576;0.194;2022-08-03T13:40:14;30.20;64.30
21992;DHT22;11160;51.576;0.194;2022-08-03T13:42:43;30.00;64.30
21992;DHT22;11160;51.576;0.194;2022-08-03T13:45:11;30.00;64.80
21992;DHT22;11160;51.576;0.194;2022-08-03T13:47:38;30.00;65.00
21992;DHT22;11160;51.576;0.194;2022-08-03T13:50:05;30.00;65.00
21992;DHT22;11160;51.576;0.194;2022-08-03T13:52:34;30.20;65.10
21992;DHT22;11160;51.576;0.194;2022-08-03T13:55:03;30.30;65.70
21992;DHT22;11160;51.576;0.194;2022-08-03T13:57:30;30.30;64.40
21992;DHT22;11160;51.576;0.194;2022-08-03T14:00:18;30.50;64.30
21992;DHT22;11160;51.576;0.194;2022-08-03T14:03:01;30.60;64.20
21992;DHT22;11160;51.576;0.194;2022-08-03T14:05:40;30.50;63.60
21992;DHT22;11160;51.576;0.194;2022-08-03T14:08:07;30.50;63.70
21992;DHT22;11160;51.576;0.194;2022-08-03T14:10:43;30.60;63.90
21992;DHT22;11160;51.576;0.194;2022-08-03T14:13:13;30.70;63.30
21992;DHT22;11160;51.576;0.194;2022-08-03T14:15:44;30.70;63.20
21992;DHT22;11160;51.576;0.194;2022-08-03T14:18:21;30.70;63.10
21992;DHT22;11160;51.576;0.194;2022-08-03T14:20:56;30.60;62.90
21992;DHT22;11160;51.576;0.194;2022-08-03T14:23:31;30.60;62.90
21992;DHT22;11160;51.576;0.194;2022-08-03T14:25:58;30.50;62.90
21992;DHT22;11160;51.576;0.194;2022-08-03T14:28:26;30.40;62.80
21992;DHT22;11160;51.576;0.194;2022-08-03T14:30:54;30.30;63.60
21992;DHT22;11160;51.576;0.194;2022-08-03T14:33:22;30.20;63.00
21992;DHT22;11160;51.576;0.194;2022-08-03T14:35:49;30.20;63.30
21992;DHT22;11160;51.576;0.194;2022-08-03T14:38:17;30.20;63.50
21992;DHT22;11160;51.576;0.194;2022-08-03T14:40:44;30.20;63.60
21992;DHT22;11160;51.576;0.194;2022-08-03T14:43:12;30.20;63.80
21992;DHT22;11160;51.576;0.194;2022-08-03T14:45:39;30.30;63.50
21992;DHT22;11160;51.576;0.194;2022-08-03T14:48:06;30.30;63.20
21992;DHT22;11160;51.576;0.194;2022-08-03T14:50:53;30.30;63.10
21992;DHT22;11160;51.576;0.194;2022-08-03T14:53:21;30.30;63.00
21992;DHT22;11160;51.576;0.194;2022-08-03T14:55:48;30.20;63.10
21992;DHT22;11160;51.576;0.194;2022-08-03T14:58:21;30.10;63.10
21992;DHT22;11160;51.576;0.194;2022-08-03T15:00:53;30.00;63.20
21992;DHT22;11160;51.576;0.194;2022-08-03T15:03:22;30.00;63.30
21992;DHT22;11160;51.576;0.194;2022-08-03T15:05:51;29.90;63.40
21992;DHT22;11160;51.576;0.194;2022-08-03T15:08:19;29.90;63.50
21992;DHT22;11160;51.576;0.194;2022-08-03T15:10:47;29.80;63.70
21992;DHT22;11160;51.576;0.194;2022-08-03T15:13:16;29.80;63.90
21992;DHT22;11160;51.576;0.194;2022-08-03T15:15:43;29.70;63.90
21992;DHT22;11160;51.576;0.194;2022-08-03T15:18:11;29.80;64.00
21992;DHT22;11160;51.576;0.194;2022-08-03T15:20:38;29.70;64.00
21992;DHT22;11160;51.576;0.194;2022-08-03T15:23:13;29.70;63.90
21992;DHT22;11160;51.576;0.194;2022-08-03T15:25:41;29.70;64.00
21992;DHT22;11160;51.576;0.194;2022-08-03T15:28:29;29.70;64.10
21992;DHT22;11160;51.576;0.194;2022-08-03T15:30:56;29.60;64.30
21992;DHT22;11160;51.576;0.194;2022-08-03T15:33:23;29.70;64.40
21992;DHT22;11160;51.576;0.194;2022-08-03T15:35:50;29.70;64.40
21992;DHT22;11160;51.576;0.194;2022-08-03T15:38:19;29.70;64.50
21992;DHT22;11160;51.576;0.194;2022-08-03T15:40:52;29.60;64.30
21992;DHT22;11160;51.576;0.194;2022-08-03T15:43:23;29.60;64.40
21992;DHT22;11160;51.576;0.194;2022-08-03T15:45:50;29.70;64.50
21992;DHT22;11160;51.576;0.194;2022-08-03T15:48:38;29.60;64.30
21992;DHT22;11160;51.576;0.194;2022-08-03T15:51:06;29.50;64.30
21992;DHT22;11160;51.576;0.194;2022-08-03T15:53:34;29.50;64.30
21992;DHT22;11160;51.576;0.194;2022-08-03T15:56:01;29.50;64.50
21992;DHT22;11160;51.576;0.194;2022-08-03T15:58:37;29.50;64.70
21992;DHT22;11160;51.576;0.194;2022-08-03T16:01:24;29.50;64.60
21992;DHT22;11160;51.576;0.194;2022-08-03T16:03:52;29.50;64.80
21992;DHT22;11160;51.576;0.194;2022-08-03T16:06:19;29.50;65.10
21992;DHT22;11160;51.576;0.194;2022-08-03T16:09:05;29.40;65.20
21992;DHT22;11160;51.576;0.194;2022-08-03T16:11:52;29.50;65.50
21992;DHT22;11160;51.576;0.194;2022-08-03T16:14:20;29.50;65.60
21992;DHT22;11160;51.576;0.194;2022-08-03T16:17:02;29.50;65.70
21992;DHT22;11160;51.576;0.194;2022-08-03T16:19:29;29.50;65.90
21992;DHT22;11160;51.576;0.194;2022-08-03T16:21:56;29.40;65.90
21992;DHT22;11160;51.576;0.194;2022-08-03T16:24:23;29.50;66.10
21992;DHT22;11160;51.576;0.194;2022-08-03T16:26:54;29.50;66.20
21992;DHT22;11160;51.576;0.194;2022-08-03T16:29:21;29.50;66.20
21992;DHT22;11160;51.576;0.194;2022-08-03T16:31:50;29.50;66.30
21992;DHT22;11160;51.576;0.194;2022-08-03T16:34:18;29.50;66.40
21992;DHT22;11160;51.576;0.194;2022-08-03T16:36:45;29.50;66.50